createdAt,value
2019-05-23T00:01:20.088Z,91.90
2019-05-23T00:07:35.305Z,92.00
2019-05-23T00:10:35.394Z,92.10
2019-05-23T00:13:36.385Z,91.80
2019-05-23T00:16:10.664Z,91.60
2019-05-23T00:18:45.826Z,91.50
2019-05-23T00:21:19.479Z,91.50
2019-05-23T00:23:50.385Z,91.40
2019-05-23T00:26:24.912Z,91.70
2019-05-23T00:29:09.093Z,91.90
2019-05-23T00:31:46.937Z,92.00
2019-05-23T00:34:28.148Z,92.00
2019-05-23T00:37:08.746Z,91.90
2019-05-23T00:39:41.674Z,92.00
2019-05-23T00:42:23.976Z,92.20
2019-05-23T00:45:24.775Z,92.40
2019-05-23T00:47:57.039Z,92.40
2019-05-23T00:56:37.038Z,92.80
2019-05-23T00:59:26.003Z,93.00
2019-05-23T01:01:50.730Z,93.20
2019-05-23T01:04:29.743Z,93.00
2019-05-23T01:07:16.359Z,93.00
2019-05-23T01:15:53.103Z,92.90
2019-05-23T01:21:37.825Z,93.10
2019-05-23T01:27:23.527Z,93.50
2019-05-23T01:30:00.179Z,93.70
2019-05-23T01:33:15.038Z,93.80
2019-05-23T01:35:52.677Z,93.70
2019-05-23T01:38:32.775Z,93.80
2019-05-23T01:41:25.813Z,93.80
2019-05-23T01:47:11.866Z,94.00
2019-05-23T01:49:41.226Z,94.20
2019-05-23T01:55:20.087Z,94.40
2019-05-23T01:57:58.753Z,94.30
2019-05-23T02:03:30.557Z,94.70
2019-05-23T02:06:08.050Z,94.70
2019-05-23T02:08:39.578Z,94.60
2019-05-23T02:11:19.546Z,94.60
2019-05-23T02:14:02.210Z,94.70
2019-05-23T02:16:35.299Z,94.60
2019-05-23T02:19:13.648Z,94.60
2019-05-23T02:21:46.473Z,94.50
2019-05-23T02:24:23.550Z,94.50
2019-05-23T02:26:59.679Z,94.50
2019-05-23T02:29:43.844Z,94.50
2019-05-23T02:32:20.261Z,94.30
2019-05-23T02:34:59.910Z,94.00
2019-05-23T02:37:45.299Z,94.20
2019-05-23T02:40:18.588Z,94.00
2019-05-23T02:43:09.798Z,94.10
2019-05-23T02:45:56.237Z,94.30
2019-05-23T02:51:47.267Z,94.20
2019-05-23T02:57:23.123Z,93.60
2019-05-23T03:00:04.788Z,94.00
2019-05-23T03:02:57.142Z,94.00
2019-05-23T03:05:43.646Z,93.80
2019-05-23T03:11:45.951Z,93.50
2019-05-23T03:14:24.865Z,93.50
2019-05-23T03:17:04.837Z,93.30
2019-05-23T03:19:52.625Z,93.60
2019-05-23T03:22:40.608Z,93.50
2019-05-23T03:28:35.991Z,93.60
2019-05-23T03:34:08.828Z,93.70
2019-05-23T03:36:46.973Z,93.80
2019-05-23T03:39:28.809Z,93.90
2019-05-23T03:42:05.646Z,93.90
2019-05-23T03:44:42.199Z,94.10
2019-05-23T03:47:17.664Z,94.10
2019-05-23T03:49:56.671Z,94.30
2019-05-23T03:52:32.826Z,94.10
2019-05-23T03:58:04.252Z,94.10
2019-05-23T04:00:40.667Z,94.30
2019-05-23T04:03:16.446Z,94.00
2019-05-23T04:05:51.411Z,94.10
2019-05-23T04:08:23.475Z,93.90
2019-05-23T04:10:58.730Z,94.20
2019-05-23T04:13:31.866Z,93.80
2019-05-23T04:16:10.832Z,93.60
2019-05-23T04:18:44.027Z,93.60
2019-05-23T04:21:16.461Z,93.50
2019-05-23T04:24:01.327Z,93.50
2019-05-23T04:26:54.649Z,94.00
2019-05-23T04:29:37.517Z,93.50
2019-05-23T04:32:16.652Z,93.40
2019-05-23T04:34:47.271Z,93.50
2019-05-23T04:37:20.381Z,93.60
2019-05-23T04:39:51.256Z,93.60
2019-05-23T04:42:27.442Z,93.90
2019-05-23T04:45:02.554Z,93.50
2019-05-23T04:47:33.211Z,93.30
2019-05-23T04:50:06.686Z,93.10
2019-05-23T04:52:40.001Z,92.90
2019-05-23T04:55:19.170Z,92.80
2019-05-23T04:57:55.388Z,92.80
2019-05-23T05:00:31.347Z,92.90
2019-05-23T05:03:06.814Z,92.90
2019-05-23T05:05:44.031Z,93.40
2019-05-23T05:08:23.651Z,93.60
2019-05-23T05:10:49.364Z,93.50
2019-05-23T05:13:20.806Z,93.40
2019-05-23T05:15:53.275Z,93.70
2019-05-23T05:18:25.241Z,93.50
2019-05-23T05:20:58.109Z,93.30
2019-05-23T05:23:28.071Z,93.20
2019-05-23T05:26:00.855Z,93.40
2019-05-23T05:28:37.656Z,93.10
2019-05-23T05:31:09.246Z,92.90
2019-05-23T05:33:39.014Z,92.90
2019-05-23T05:36:09.079Z,93.00
2019-05-23T05:38:39.139Z,92.90
2019-05-23T05:41:09.642Z,93.10
2019-05-23T05:43:40.233Z,92.90
2019-05-23T05:46:10.542Z,92.90
2019-05-23T05:48:40.921Z,92.90
2019-05-23T05:51:14.049Z,92.90
2019-05-23T05:53:48.530Z,92.40
2019-05-23T05:56:21.082Z,92.50
2019-05-23T05:58:53.511Z,92.90
2019-05-23T06:01:33.977Z,92.10
2019-05-23T06:03:57.708Z,92.10
2019-05-23T06:06:33.107Z,92.00
2019-05-23T06:09:27.378Z,92.20
2019-05-23T06:12:12.012Z,92.10
2019-05-23T06:14:46.513Z,91.90
2019-05-23T06:17:20.870Z,91.90
2019-05-23T06:20:04.053Z,92.10
2019-05-23T06:22:39.670Z,92.00
2019-05-23T06:25:20.721Z,91.90
2019-05-23T06:27:52.119Z,92.00
2019-05-23T06:30:32.623Z,91.90
2019-05-23T06:33:19.772Z,91.50
2019-05-23T06:38:34.279Z,91.60
2019-05-23T06:41:06.230Z,91.50
2019-05-23T06:43:44.557Z,91.30
2019-05-23T06:46:16.716Z,91.20
2019-05-23T06:48:58.082Z,91.00
2019-05-23T06:51:35.024Z,91.20
2019-05-23T06:54:14.585Z,90.50
2019-05-23T06:56:55.105Z,90.60
2019-05-23T06:59:32.946Z,90.50
2019-05-23T07:02:08.240Z,90.40
2019-05-23T07:04:40.007Z,90.50
2019-05-23T07:24:25.800Z,90.40
2019-05-23T07:27:01.107Z,91.20
2019-05-23T07:29:34.877Z,91.30
2019-05-23T07:32:09.943Z,90.40
2019-05-23T07:34:41.690Z,89.90
2019-05-23T07:37:15.168Z,90.00
2019-05-23T07:39:47.504Z,90.60
2019-05-23T07:42:20.158Z,89.20
2019-05-23T07:44:55.537Z,89.50
2019-05-23T07:47:31.479Z,89.10
2019-05-23T07:50:18.885Z,89.00
2019-05-23T07:52:36.990Z,88.00
2019-05-23T07:55:10.723Z,88.30
2019-05-23T07:57:51.373Z,87.60
2019-05-23T08:00:33.972Z,87.80
2019-05-23T08:03:08.601Z,87.60
2019-05-23T08:05:42.346Z,85.80
2019-05-23T08:08:13.555Z,86.30
2019-05-23T08:10:44.998Z,86.70
2019-05-23T08:13:26.695Z,86.10
2019-05-23T08:16:00.173Z,83.20
2019-05-23T08:18:31.121Z,81.80
2019-05-23T08:21:03.878Z,82.10
2019-05-23T08:23:33.899Z,81.80
2019-05-23T08:26:06.085Z,82.50
2019-05-23T08:28:53.371Z,83.30
2019-05-23T08:31:09.386Z,80.10
2019-05-23T08:33:46.535Z,80.40
2019-05-23T08:36:19.404Z,79.90
2019-05-23T08:38:51.624Z,79.70
2019-05-23T08:41:25.004Z,80.90
2019-05-23T08:43:56.510Z,81.40
2019-05-23T08:46:52.597Z,81.40
2019-05-23T08:49:17.949Z,79.80
2019-05-23T08:51:50.973Z,78.30
2019-05-23T08:54:24.222Z,78.60
2019-05-23T08:56:55.995Z,81.30
2019-05-23T08:59:30.843Z,80.00
2019-05-23T09:02:02.149Z,78.70
2019-05-23T09:04:32.338Z,74.70
2019-05-23T09:07:02.848Z,74.50
2019-05-23T09:09:36.187Z,73.90
2019-05-23T09:12:11.869Z,71.50
2019-05-23T09:14:42.948Z,72.50
2019-05-23T09:17:14.231Z,74.80
2019-05-23T09:19:45.348Z,74.20
2019-05-23T09:22:17.167Z,73.60
2019-05-23T09:24:48.184Z,73.50
2019-05-23T09:27:22.485Z,73.00
2019-05-23T09:29:52.999Z,75.00
2019-05-23T09:32:24.138Z,77.20
2019-05-23T09:34:55.672Z,71.90
2019-05-23T09:37:29.278Z,70.90
2019-05-23T09:40:00.264Z,72.70
2019-05-23T09:42:30.290Z,73.80
2019-05-23T09:45:00.237Z,73.90
2019-05-23T09:47:33.996Z,73.30
2019-05-23T09:50:09.786Z,71.80
2019-05-23T09:52:42.699Z,70.80
2019-05-23T09:55:13.224Z,70.30
2019-05-23T09:57:44.151Z,70.90
2019-05-23T10:00:16.364Z,70.30
2019-05-23T10:02:46.520Z,72.40
2019-05-23T10:05:38.310Z,73.10
2019-05-23T10:07:50.439Z,73.00
2019-05-23T10:10:20.998Z,73.30
2019-05-23T10:12:50.947Z,74.30
2019-05-23T10:15:40.786Z,71.40
2019-05-23T10:18:18.586Z,69.20
2019-05-23T10:20:50.119Z,70.80
2019-05-23T10:23:21.731Z,71.30
2019-05-23T10:25:52.815Z,69.30
2019-05-23T10:28:23.055Z,70.20
2019-05-23T10:30:53.210Z,70.10
2019-05-23T10:33:23.249Z,70.50
2019-05-23T10:36:00.375Z,70.90
2019-05-23T10:38:29.284Z,71.10
2019-05-23T10:40:58.801Z,68.50
2019-05-23T10:43:28.913Z,68.40
2019-05-23T10:45:58.864Z,68.30
2019-05-23T10:48:30.810Z,70.50
2019-05-23T10:51:00.898Z,70.10
2019-05-23T10:53:30.761Z,71.00
2019-05-23T10:56:00.846Z,69.30
2019-05-23T10:58:30.886Z,70.80
2019-05-23T11:01:01.416Z,70.30
2019-05-23T11:03:31.703Z,72.70
2019-05-23T11:06:15.087Z,71.90
2019-05-23T11:08:34.182Z,69.90
2019-05-23T11:11:05.376Z,69.50
2019-05-23T11:13:36.309Z,71.40
2019-05-23T11:16:06.592Z,71.00
2019-05-23T11:18:36.750Z,72.20
2019-05-23T11:21:06.822Z,73.50
2019-05-23T11:23:38.471Z,73.40
2019-05-23T11:26:10.103Z,71.20
2019-05-23T11:28:40.158Z,71.10
2019-05-23T11:31:11.726Z,70.90
2019-05-23T11:33:41.758Z,70.30
2019-05-23T11:36:12.367Z,71.90
2019-05-23T11:38:42.494Z,72.00
2019-05-23T11:41:12.592Z,71.10
2019-05-23T11:43:48.243Z,71.40
2019-05-23T11:46:29.619Z,70.20
2019-05-23T11:49:01.354Z,69.80
2019-05-23T11:51:32.865Z,69.10
2019-05-23T11:54:09.457Z,68.00
2019-05-23T11:56:38.759Z,69.70
2019-05-23T11:59:09.306Z,68.10
2019-05-23T12:01:44.294Z,69.10
2019-05-23T12:04:18.552Z,68.90
2019-05-23T12:06:55.658Z,69.00
2019-05-23T12:09:22.926Z,68.60
2019-05-23T12:11:52.968Z,67.10
2019-05-23T12:14:23.561Z,69.40
2019-05-23T12:16:55.514Z,64.70
2019-05-23T12:19:27.286Z,66.30
2019-05-23T12:21:58.151Z,65.90
2019-05-23T12:24:35.498Z,63.40
2019-05-23T12:27:10.171Z,66.20
2019-05-23T12:29:44.750Z,68.20
2019-05-23T12:32:15.010Z,67.60
2019-05-23T12:35:07.952Z,64.80
2019-05-23T12:37:22.607Z,66.90
2019-05-23T12:42:50.024Z,65.80
2019-05-23T12:45:20.966Z,63.60
2019-05-23T12:47:54.318Z,66.50
2019-05-23T12:50:34.191Z,63.10
2019-05-23T12:53:10.674Z,64.30
2019-05-23T12:55:41.687Z,63.30
2019-05-23T12:58:13.849Z,66.10
2019-05-23T13:00:51.535Z,66.70
2019-05-23T13:03:24.274Z,67.60
2019-05-23T13:05:57.427Z,64.40
2019-05-23T13:08:31.969Z,64.10
2019-05-23T13:11:02.673Z,63.10
2019-05-23T13:13:32.717Z,63.90
2019-05-23T13:16:03.311Z,65.10
2019-05-23T13:18:33.403Z,63.70
2019-05-23T13:21:03.476Z,64.60
2019-05-23T13:23:34.237Z,64.00
2019-05-23T13:26:06.069Z,66.20
2019-05-23T13:28:36.063Z,64.60
2019-05-23T13:31:06.104Z,62.70
2019-05-23T13:33:37.552Z,61.20
2019-05-23T13:36:09.251Z,62.40
2019-05-23T13:38:39.431Z,65.40
2019-05-23T13:41:10.098Z,65.70
2019-05-23T13:43:40.621Z,65.50
2019-05-23T13:46:12.921Z,67.60
2019-05-23T13:48:42.949Z,67.20
2019-05-23T13:51:14.241Z,65.30
2019-05-23T13:53:44.296Z,65.30
2019-05-23T13:56:19.825Z,65.60
2019-05-23T13:58:50.362Z,66.40
2019-05-23T14:01:25.704Z,65.30
2019-05-23T14:03:56.754Z,66.10
2019-05-23T14:06:28.427Z,64.80
2019-05-23T14:09:01.860Z,63.90
2019-05-23T14:11:32.082Z,64.50
2019-05-23T14:14:04.022Z,65.10
2019-05-23T14:16:40.558Z,64.30
2019-05-23T14:19:12.018Z,65.90
2019-05-23T14:21:42.498Z,64.80
2019-05-23T14:24:12.861Z,65.80
2019-05-23T14:26:48.505Z,65.20
2019-05-23T14:29:21.448Z,65.00
2019-05-23T14:31:55.771Z,64.30
2019-05-23T14:34:30.745Z,65.90
2019-05-23T14:37:03.837Z,66.40
2019-05-23T14:39:36.442Z,66.90
2019-05-23T14:42:27.266Z,62.80
2019-05-23T14:44:58.707Z,62.20
2019-05-23T14:47:46.461Z,60.10
2019-05-23T14:50:25.235Z,60.00
2019-05-23T14:52:56.857Z,60.10
2019-05-23T14:55:27.101Z,60.70
2019-05-23T14:57:57.027Z,60.60
2019-05-23T15:00:27.902Z,59.80
2019-05-23T15:02:57.979Z,61.00
2019-05-23T15:05:28.485Z,60.90
2019-05-23T15:07:58.977Z,59.90
2019-05-23T15:10:29.208Z,59.90
2019-05-23T15:12:59.528Z,62.60
2019-05-23T15:15:30.035Z,62.50
2019-05-23T15:18:00.626Z,60.80
2019-05-23T15:20:30.685Z,60.90
2019-05-23T15:23:00.603Z,60.30
2019-05-23T15:25:30.626Z,59.30
2019-05-23T15:28:00.611Z,60.90
2019-05-23T15:30:30.706Z,59.70
2019-05-23T15:33:00.810Z,60.30
2019-05-23T15:35:31.294Z,60.30
2019-05-23T15:38:01.214Z,59.40
2019-05-23T15:40:31.900Z,60.00
2019-05-23T15:43:02.039Z,60.30
2019-05-23T15:45:32.446Z,59.00
2019-05-23T15:48:02.893Z,58.70
2019-05-23T15:50:40.774Z,58.90
2019-05-23T15:53:24.466Z,59.50
2019-05-23T15:55:56.183Z,59.60
2019-05-23T15:58:27.687Z,58.90
2019-05-23T16:01:02.136Z,56.40
2019-05-23T16:03:34.820Z,57.90
2019-05-23T16:06:06.643Z,57.60
2019-05-23T16:08:36.629Z,56.90
2019-05-23T16:11:06.658Z,57.30
2019-05-23T16:13:36.976Z,57.30
2019-05-23T16:16:07.017Z,58.40
2019-05-23T16:18:37.448Z,58.80
2019-05-23T16:21:07.821Z,57.00
2019-05-23T16:23:37.985Z,57.80
2019-05-23T16:26:11.591Z,58.50
2019-05-23T16:28:39.993Z,58.30
2019-05-23T16:31:10.110Z,57.80
2019-05-23T16:33:40.027Z,58.40
2019-05-23T16:36:10.079Z,57.70
2019-05-23T16:38:40.003Z,57.70
2019-05-23T16:41:11.619Z,57.20
2019-05-23T16:43:41.570Z,59.00
2019-05-23T16:46:11.609Z,58.20
2019-05-23T16:48:42.898Z,57.30
2019-05-23T16:51:12.899Z,57.80
2019-05-23T16:53:42.785Z,56.40
2019-05-23T16:56:26.622Z,56.40
2019-05-23T16:59:03.525Z,56.50
2019-05-23T17:01:34.959Z,58.70
2019-05-23T17:04:15.914Z,58.60
2019-05-23T17:06:56.098Z,58.30
2019-05-23T17:09:40.103Z,59.30
2019-05-23T17:12:28.406Z,59.20
2019-05-23T17:14:59.998Z,58.60
2019-05-23T17:17:56.699Z,57.80
2019-05-23T17:20:19.712Z,57.50
2019-05-23T17:23:05.852Z,58.30
2019-05-23T17:25:46.562Z,60.80
2019-05-23T17:28:24.231Z,60.20
2019-05-23T17:30:55.930Z,60.50
2019-05-23T17:33:26.166Z,61.90
2019-05-23T17:35:56.629Z,63.10
2019-05-23T17:38:28.216Z,63.40
2019-05-23T17:41:03.170Z,62.80
2019-05-23T17:43:33.102Z,62.90
2019-05-23T17:46:03.912Z,63.30
2019-05-23T17:48:34.073Z,64.90
2019-05-23T17:51:04.043Z,64.60
2019-05-23T17:53:35.609Z,63.70
2019-05-23T17:56:12.486Z,64.40
2019-05-23T17:58:47.096Z,64.10
2019-05-23T18:01:17.144Z,64.50
2019-05-23T18:03:47.436Z,64.10
2019-05-23T18:06:17.599Z,64.80
2019-05-23T18:08:49.540Z,65.10
2019-05-23T18:11:22.473Z,66.00
2019-05-23T18:13:52.470Z,67.10
2019-05-23T18:16:23.238Z,67.70
2019-05-23T18:18:53.339Z,68.30
2019-05-23T18:21:24.029Z,69.10
2019-05-23T18:23:54.537Z,69.80
2019-05-23T18:26:24.734Z,70.50
2019-05-23T18:28:54.850Z,71.40
2019-05-23T18:31:26.657Z,72.40
2019-05-23T18:33:56.693Z,72.30
2019-05-23T18:36:27.460Z,72.80
2019-05-23T18:38:57.617Z,73.00
2019-05-23T18:41:27.734Z,73.10
2019-05-23T18:43:59.440Z,73.30
2019-05-23T18:46:43.390Z,73.50
2019-05-23T18:49:15.503Z,73.90
2019-05-23T18:51:46.443Z,74.50
2019-05-23T18:54:17.105Z,75.10
2019-05-23T18:56:47.103Z,75.40
2019-05-23T18:59:17.919Z,75.90
2019-05-23T19:01:48.574Z,76.00
2019-05-23T19:04:18.591Z,76.90
2019-05-23T19:06:48.693Z,77.50
2019-05-23T19:09:18.914Z,77.00
2019-05-23T19:11:48.838Z,78.20
2019-05-23T19:14:18.802Z,78.00
2019-05-23T19:16:48.993Z,78.20
2019-05-23T19:19:19.841Z,78.30
2019-05-23T19:21:49.958Z,78.10
2019-05-23T19:24:19.871Z,78.30
2019-05-23T19:26:50.162Z,78.70
2019-05-23T19:29:20.261Z,79.00
2019-05-23T19:31:50.354Z,79.50
2019-05-23T19:34:20.715Z,80.40
2019-05-23T19:36:50.746Z,82.10
2019-05-23T19:39:22.214Z,81.10
2019-05-23T19:41:52.342Z,82.10
2019-05-23T19:44:22.331Z,81.30
2019-05-23T19:46:52.351Z,80.90
2019-05-23T19:49:22.325Z,82.00
2019-05-23T19:51:52.447Z,81.80
2019-05-23T19:54:23.228Z,81.50
2019-05-23T19:56:53.527Z,81.50
2019-05-23T19:59:23.607Z,81.60
2019-05-23T20:02:04.175Z,80.80
2019-05-23T20:04:36.889Z,82.70
2019-05-23T20:07:07.926Z,84.40
2019-05-23T20:09:39.114Z,83.10
2019-05-23T20:12:09.358Z,83.00
2019-05-23T20:14:39.566Z,85.10
2019-05-23T20:17:09.666Z,84.70
2019-05-23T20:19:39.533Z,80.00
2019-05-23T20:22:09.974Z,79.70
2019-05-23T20:24:39.905Z,78.80
2019-05-23T20:27:10.343Z,79.70
2019-05-23T20:29:40.471Z,79.10
2019-05-23T20:32:11.034Z,80.10
2019-05-23T20:34:41.109Z,80.00
2019-05-23T20:37:11.242Z,80.00
2019-05-23T20:39:41.236Z,79.80
2019-05-23T20:42:12.223Z,79.90
2019-05-23T20:44:42.401Z,80.00
2019-05-23T20:47:13.237Z,80.40
2019-05-23T20:49:44.791Z,80.60
2019-05-23T20:52:14.785Z,82.00
2019-05-23T20:54:44.808Z,81.40
2019-05-23T20:57:15.250Z,81.20
2019-05-23T20:59:45.195Z,81.60
2019-05-23T21:02:15.266Z,81.60
2019-05-23T21:04:45.261Z,81.90
2019-05-23T21:07:16.275Z,81.70
2019-05-23T21:09:46.227Z,82.30
2019-05-23T21:12:29.684Z,82.80
2019-05-23T21:14:47.927Z,82.50
2019-05-23T21:17:17.878Z,82.20
2019-05-23T21:19:47.890Z,82.70
2019-05-23T21:22:18.083Z,82.80
2019-05-23T21:24:48.104Z,82.50
2019-05-23T21:27:18.121Z,82.60
2019-05-23T21:29:48.155Z,83.00
2019-05-23T21:32:18.221Z,83.00
2019-05-23T21:34:48.246Z,84.30
2019-05-23T21:37:18.257Z,85.10
2019-05-23T21:39:48.353Z,85.40
2019-05-23T21:42:18.287Z,84.50
2019-05-23T21:44:48.267Z,84.60
2019-05-23T21:47:19.157Z,84.20
2019-05-23T21:49:49.166Z,84.20
2019-05-23T21:52:19.103Z,83.50
2019-05-23T21:54:49.200Z,82.90
2019-05-23T21:57:19.315Z,83.10
2019-05-23T21:59:49.237Z,81.60
2019-05-23T22:02:21.088Z,82.00
2019-05-23T22:04:53.233Z,81.80
2019-05-23T22:07:23.205Z,81.80
2019-05-23T22:09:53.206Z,82.70
2019-05-23T22:12:23.511Z,82.90
2019-05-23T22:14:53.608Z,82.60
2019-05-23T22:17:25.225Z,82.30
2019-05-23T22:19:55.220Z,83.10
2019-05-23T22:22:25.523Z,83.00
2019-05-23T22:24:55.383Z,83.50
2019-05-23T22:27:26.262Z,83.80
2019-05-23T22:29:56.275Z,84.40
2019-05-23T22:32:27.617Z,86.60
2019-05-23T22:34:59.174Z,83.90
2019-05-23T22:37:29.724Z,84.10
2019-05-23T22:40:02.701Z,84.40
2019-05-23T22:42:34.495Z,84.20
2019-05-23T22:45:07.908Z,86.30
2019-05-23T22:47:37.866Z,85.80
2019-05-23T22:50:08.548Z,86.20
2019-05-23T22:52:38.606Z,85.70
2019-05-23T22:55:08.632Z,84.10
2019-05-23T22:57:38.786Z,83.10
2019-05-23T23:00:09.256Z,81.60
2019-05-23T23:02:39.209Z,81.40
2019-05-23T23:05:10.793Z,81.60
2019-05-23T23:07:40.897Z,81.60
2019-05-23T23:10:11.374Z,82.00
2019-05-23T23:12:41.404Z,82.40
2019-05-23T23:15:11.666Z,83.10
2019-05-23T23:17:41.578Z,83.30
2019-05-23T23:20:13.154Z,83.70
2019-05-23T23:22:43.175Z,83.70
2019-05-23T23:25:13.293Z,83.80
2019-05-23T23:27:43.211Z,83.80
2019-05-23T23:30:15.479Z,84.10
2019-05-23T23:32:45.352Z,84.40
2019-05-23T23:35:16.982Z,84.50
2019-05-23T23:37:46.866Z,84.90
2019-05-23T23:40:17.041Z,85.10
2019-05-23T23:42:46.947Z,85.20
2019-05-23T23:45:34.960Z,85.30
2019-05-23T23:48:22.873Z,85.30
2019-05-23T23:51:10.973Z,85.30
2019-05-23T23:53:58.470Z,85.10
2019-05-23T23:56:47.386Z,84.90
2019-05-23T23:59:17.225Z,85.00
